Time;durP1;ratioP1;P1;durP2;ratioP2;P2;SDS_P1;SDS_P2;PMS_P1;PMS_P2;Temp;Humidity;BMP_temperature;BMP_pressure;BME280_temperature;BME280_humidity;BME280_pressure;Samples;Min_cycle;Max_cycle;Signal;HPM_P1;HPM_P2
2022/01/30 00:00:11;;;;;;;16.02;4.18;;;;;;;6.11;99.11;101755.91;691952;28;3041;-55
2022/01/30 00:00:34;;;;;;;16.27;4.80;;;;;;;6.21;98.00;101762.25;691875;28;1282;-55
2022/01/30 00:00:55;;;;;;;14.68;4.57;;;;;;;6.23;97.84;101754.50;689137;28;1407;-57
2022/01/30 00:01:15;;;;;;;16.13;4.07;;;;;;;6.21;98.98;101758.78;689039;28;1979;-58
2022/01/30 00:01:36;;;;;;;15.17;3.87;;;;;;;6.19;97.83;101760.44;688840;28;4530;-57
2022/01/30 00:01:56;;;;;;;13.63;4.13;;;;;;;6.16;98.66;101760.34;689729;28;1232;-55
2022/01/30 00:02:17;;;;;;;14.87;3.93;;;;;;;6.13;99.06;101766.31;692273;28;1278;-52
2022/01/30 00:02:37;;;;;;;19.05;4.25;;;;;;;6.10;99.61;101764.50;691862;28;1381;-58
2022/01/30 00:02:58;;;;;;;16.02;3.60;;;;;;;6.07;100.00;101763.56;694227;28;1176;-58
2022/01/30 00:03:18;;;;;;;17.30;3.93;;;;;;;6.05;100.00;101765.19;694593;28;3710;-53
2022/01/30 00:03:39;;;;;;;15.50;3.85;;;;;;;6.01;99.97;101764.25;694311;28;1308;-55
2022/01/30 00:03:59;;;;;;;16.13;4.30;;;;;;;6.08;99.76;101766.19;694698;28;1392;-57
2022/01/30 00:04:20;;;;;;;17.58;4.50;;;;;;;6.09;99.17;101765.38;688874;28;4401;-53
2022/01/30 00:04:40;;;;;;;17.37;4.13;;;;;;;6.11;98.70;101770.59;689872;28;840;-56
2022/01/30 00:05:00;;;;;;;15.13;3.90;;;;;;;6.03;98.23;101767.75;689133;28;1409;-56
2022/01/30 00:05:22;;;;;;;17.23;4.00;;;;;;;6.05;98.96;101776.50;685832;28;1228;-59
2022/01/30 00:05:43;;;;;;;16.58;3.80;;;;;;;6.08;98.82;101760.13;681365;28;2724;-55
2022/01/30 00:06:06;;;;;;;15.70;3.87;;;;;;;6.07;99.35;101773.94;685169;28;3628;-55
2022/01/30 00:06:26;;;;;;;17.23;4.35;;;;;;;6.08;99.55;101780.91;691295;28;1316;-58
2022/01/30 00:06:47;;;;;;;16.03;3.87;;;;;;;6.21;99.15;101777.81;691282;28;1196;-55
2022/01/30 00:07:08;;;;;;;16.52;4.30;;;;;;;6.18;98.44;101771.69;692236;28;1323;-53
2022/01/30 00:07:28;;;;;;;18.30;4.90;;;;;;;6.16;97.29;101778.53;694465;28;4528;-59
2022/01/30 00:07:49;;;;;;;19.27;4.23;;;;;;;6.17;98.27;101772.50;695554;28;1493;-59
2022/01/30 00:08:09;;;;;;;15.55;3.70;;;;;;;6.12;98.94;101778.44;692089;28;1289;-55
2022/01/30 00:08:30;;;;;;;17.88;3.97;;;;;;;6.14;97.32;101774.16;692439;28;1394;-56
2022/01/30 00:08:50;;;;;;;15.93;4.00;;;;;;;6.22;97.44;101773.53;691684;28;3466;-56
2022/01/30 00:09:17;;;;;;;16.67;4.27;;;;;;;6.22;98.00;101771.81;692066;28;1469;-56
2022/01/30 00:09:38;;;;;;;18.63;4.30;;;;;;;6.19;97.94;101773.41;692951;28;1531;-58
2022/01/30 00:09:58;;;;;;;16.00;3.93;;;;;;;6.17;96.98;101764.72;693541;28;1187;-58
2022/01/30 00:10:19;;;;;;;14.65;3.95;;;;;;;6.14;97.62;101776.75;695164;28;4386;-53
2022/01/30 00:10:40;;;;;;;14.77;3.80;;;;;;;6.20;96.59;101770.88;695690;28;1417;-59
2022/01/30 00:11:09;;;;;;;15.65;4.28;;;;;;;6.21;97.08;101767.44;692589;28;1259;-56
2022/01/30 00:11:34;;;;;;;16.27;4.10;;;;;;;6.24;97.21;101779.66;692202;28;1974;-55
2022/01/30 00:11:58;;;;;;;17.52;3.97;;;;;;;6.25;96.30;101773.63;689574;28;2323;-55
2022/01/30 00:12:27;;;;;;;19.00;4.10;;;;;;;6.28;96.79;101776.31;689167;28;1457;-56
2022/01/30 00:12:54;;;;;;;16.75;3.80;;;;;;;6.28;96.11;101777.19;690991;28;1350;-54
2022/01/30 00:13:17;;;;;;;16.55;3.90;;;;;;;6.25;96.72;101777.09;692458;28;1263;-55
2022/01/30 00:13:37;;;;;;;17.42;4.00;;;;;;;6.27;96.97;101784.94;692636;28;4184;-56
2022/01/30 00:14:00;;;;;;;17.10;4.10;;;;;;;6.25;97.41;101773.63;694454;28;1241;-53
2022/01/30 00:14:22;;;;;;;16.50;4.07;;;;;;;6.20;97.50;101780.38;690622;28;3120;-56
2022/01/30 00:14:42;;;;;;;16.38;3.88;;;;;;;6.13;97.92;101781.91;691689;28;2105;-53
2022/01/30 00:15:03;;;;;;;18.07;3.90;;;;;;;6.08;98.38;101776.56;691956;28;1249;-56
2022/01/30 00:15:37;;;;;;;18.65;4.15;;;;;;;6.03;98.06;101775.53;692243;28;1136;-54
2022/01/30 00:15:57;;;;;;;16.80;4.07;;;;;;;6.07;97.32;101774.81;691571;28;1274;-55
2022/01/30 00:16:20;;;;;;;15.90;4.50;;;;;;;6.04;98.05;101779.03;691768;28;4689;-57
2022/01/30 00:16:41;;;;;;;16.67;4.22;;;;;;;5.97;98.06;101777.91;691773;28;1175;-57
2022/01/30 00:17:21;;;;;;;17.35;4.18;;;;;;;5.93;98.80;101779.53;694726;28;1309;-54
2022/01/30 00:17:50;;;;;;;14.80;4.05;;;;;;;5.98;97.46;101774.50;693262;28;1147;-53
2022/01/30 00:20:04;;;;;;;15.35;4.15;;;;;;;5.89;99.22;101777.66;686209;28;4774;-53
2022/01/30 00:20:26;;;;;;;14.75;3.70;;;;;;;5.95;98.90;101782.16;686818;28;3501;-57
2022/01/30 00:21:01;;;;;;;17.15;4.22;;;;;;;5.89;97.19;101776.78;685941;28;2749;-57
2022/01/30 00:21:47;;;;;;;16.80;4.03;;;;;;;5.99;97.80;101780.59;686333;28;1918;-57
2022/01/30 00:22:39;;;;;;;16.27;4.22;;;;;;;6.02;98.14;101781.56;685546;28;1272;-57
2022/01/30 00:22:49;;;;;;;16.33;4.03;;;;;;;6.07;97.52;101785.19;685791;28;5167;-57
2022/01/30 00:23:22;;;;;;;15.73;3.85;;;;;;;6.11;97.25;101788.78;687032;28;3586;-54
2022/01/30 00:23:51;;;;;;;17.70;4.00;;;;;;;6.01;97.02;101779.81;687489;28;1355;-56
2022/01/30 00:24:18;;;;;;;15.40;4.00;;;;;;;5.94;97.90;101785.59;686410;28;1304;-55
2022/01/30 00:24:55;;;;;;;16.30;4.03;;;;;;;5.93;98.74;101794.22;686429;28;1251;-55
2022/01/30 00:25:19;;;;;;;15.50;3.80;;;;;;;6.00;97.21;101782.38;685904;28;1160;-54
2022/01/30 00:25:48;;;;;;;16.30;4.47;;;;;;;5.95;97.93;101789.94;686140;28;4923;-53
2022/01/30 00:26:09;;;;;;;20.55;4.63;;;;;;;5.92;97.03;101789.84;693682;28;1215;-56
2022/01/30 00:26:33;;;;;;;16.85;3.92;;;;;;;6.00;97.56;101793.63;693951;28;1203;-56
2022/01/30 00:26:53;;;;;;;19.10;4.07;;;;;;;5.97;98.12;101793.50;692566;28;1466;-55
2022/01/30 00:27:18;;;;;;;19.60;3.73;;;;;;;5.92;98.76;101789.84;688927;28;1769;-56
2022/01/30 00:27:55;;;;;;;15.95;3.58;;;;;;;5.85;98.42;101788.78;686982;28;1211;-55
2022/01/30 00:28:17;;;;;;;15.60;3.72;;;;;;;5.97;98.42;101796.09;686542;28;1190;-57
2022/01/30 00:28:40;;;;;;;14.25;3.88;;;;;;;6.02;98.41;101796.25;685764;28;4908;-57
2022/01/30 00:29:01;;;;;;;15.30;3.83;;;;;;;5.98;98.10;101795.25;687108;28;1985;-56
2022/01/30 00:29:21;;;;;;;14.48;4.28;;;;;;;5.93;97.65;101786.44;686350;28;1487;-56
2022/01/30 00:29:42;;;;;;;18.13;4.22;;;;;;;5.93;98.15;101787.31;687559;28;1240;-57
2022/01/30 00:30:03;;;;;;;17.63;3.80;;;;;;;5.90;98.93;101791.53;687492;28;1487;-55
2022/01/30 00:30:23;;;;;;;18.63;4.10;;;;;;;5.85;98.14;101796.56;686629;28;1183;-57
2022/01/30 00:30:44;;;;;;;17.17;3.87;;;;;;;5.89;97.54;101794.97;687125;28;1053;-54
2022/01/30 00:31:05;;;;;;;15.73;3.60;;;;;;;5.90;98.12;101796.72;683732;28;1264;-54
2022/01/30 00:31:27;;;;;;;13.57;3.78;;;;;;;5.90;96.44;101792.41;684317;28;4321;-52
2022/01/30 00:31:47;;;;;;;16.20;3.60;;;;;;;5.90;97.42;101792.41;686918;28;3666;-58
2022/01/30 00:32:11;;;;;;;18.13;3.83;;;;;;;5.84;97.42;101791.31;685853;28;1252;-53
2022/01/30 00:32:31;;;;;;;17.10;4.13;;;;;;;5.82;98.53;101793.88;684186;28;1346;-56
2022/01/30 00:32:54;;;;;;;21.13;4.20;;;;;;;5.79;99.06;101793.78;686794;28;1364;-59
2022/01/30 00:33:15;;;;;;;20.13;4.40;;;;;;;5.75;99.45;101792.78;689376;28;1204;-55
2022/01/30 00:33:36;;;;;;;18.15;4.38;;;;;;;5.82;98.27;101793.00;689973;28;1351;-54
2022/01/30 00:33:56;;;;;;;15.70;3.97;;;;;;;5.76;97.24;101799.75;689409;28;1389;-52
2022/01/30 00:34:17;;;;;;;15.53;3.97;;;;;;;5.72;96.83;101794.38;689322;28;3240;-57
2022/01/30 00:34:37;;;;;;;16.38;4.03;;;;;;;5.71;98.10;101788.31;685652;28;4951;-56
2022/01/30 00:34:58;;;;;;;17.73;4.20;;;;;;;5.68;98.18;101790.81;689029;28;1322;-54
2022/01/30 00:35:18;;;;;;;17.52;3.97;;;;;;;5.64;98.47;101788.94;689349;28;1383;-56
2022/01/30 00:35:39;;;;;;;16.13;3.80;;;;;;;5.63;99.39;101794.97;689748;28;1527;-54
2022/01/30 00:36:00;;;;;;;16.15;3.85;;;;;;;5.60;99.20;101802.66;688172;28;1507;-54
2022/01/30 00:36:20;;;;;;;17.25;4.03;;;;;;;5.64;99.62;101794.13;689534;28;1579;-55
2022/01/30 00:36:41;;;;;;;19.73;3.90;;;;;;;5.67;99.62;101795.97;687257;28;1398;-53
2022/01/30 00:37:02;;;;;;;18.77;3.90;;;;;;;5.68;100.00;101795.13;683867;28;3322;-56
2022/01/30 00:37:23;;;;;;;18.13;4.00;;;;;;;5.67;99.67;101799.44;684569;28;4448;-54
2022/01/30 00:37:48;;;;;;;16.97;4.17;;;;;;;5.66;98.25;101792.47;687008;28;1853;-54
2022/01/30 00:38:15;;;;;;;18.02;4.03;;;;;;;5.65;98.57;101797.59;687023;28;1196;-56
2022/01/30 00:38:35;;;;;;;19.20;4.25;;;;;;;5.71;98.11;101806.47;688458;28;1485;-60
2022/01/30 00:38:56;;;;;;;17.67;4.07;;;;;;;5.67;98.11;101798.56;691799;28;1457;-56
2022/01/30 00:39:17;;;;;;;18.20;4.38;;;;;;;5.67;98.84;101796.81;692317;28;1720;-56
2022/01/30 00:39:37;;;;;;;18.13;4.27;;;;;;;5.73;98.52;101796.16;692321;28;4514;-56
2022/01/30 00:39:57;;;;;;;16.90;3.87;;;;;;;5.78;99.20;101798.06;688531;28;1807;-57
2022/01/30 00:40:18;;;;;;;17.47;3.83;;;;;;;5.76;98.67;101796.25;688601;28;4370;-58
2022/01/30 00:40:38;;;;;;;15.98;3.70;;;;;;;5.83;98.40;101803.44;689075;28;1408;-58
2022/01/30 00:40:59;;;;;;;16.23;3.87;;;;;;;5.89;98.42;101789.75;691443;28;1664;-57
2022/01/30 00:41:19;;;;;;;16.08;4.20;;;;;;;5.87;98.52;101802.69;690994;28;1964;-56
2022/01/30 00:41:39;;;;;;;15.03;3.80;;;;;;;5.86;98.75;101800.06;690642;28;1707;-56
2022/01/30 00:42:00;;;;;;;16.38;4.28;;;;;;;5.84;98.88;101797.38;689435;28;1533;-57
2022/01/30 00:42:22;;;;;;;17.10;4.10;;;;;;;5.91;98.02;101798.47;686641;28;1948;-58
2022/01/30 00:42:42;;;;;;;16.10;4.47;;;;;;;5.84;97.86;101799.97;686318;28;3500;-57
2022/01/30 00:43:04;;;;;;;19.13;4.27;;;;;;;5.88;97.81;101799.25;686895;28;3463;-57
2022/01/30 00:43:24;;;;;;;16.88;4.10;;;;;;;5.86;97.42;101794.88;686035;28;4767;-53
2022/01/30 00:43:45;;;;;;;15.87;3.93;;;;;;;5.89;96.82;101800.16;686822;28;1474;-55
2022/01/30 00:44:05;;;;;;;16.88;3.90;;;;;;;5.88;96.81;101803.56;687168;28;1144;-57
2022/01/30 00:44:26;;;;;;;14.83;3.83;;;;;;;5.90;96.40;101799.31;686914;28;1872;-56
2022/01/30 00:44:46;;;;;;;16.77;4.20;;;;;;;5.83;96.46;101799.94;683695;28;1305;-56
2022/01/30 00:45:07;;;;;;;17.13;4.00;;;;;;;5.78;95.23;101800.66;684381;28;1201;-56
2022/01/30 00:45:27;;;;;;;16.05;4.05;;;;;;;5.90;95.66;101796.72;687045;28;1585;-54
2022/01/30 00:45:49;;;;;;;19.80;4.18;;;;;;;5.90;97.27;101801.91;688373;28;2939;-57
2022/01/30 00:46:09;;;;;;;20.33;4.38;;;;;;;5.83;97.15;101798.25;689404;28;1468;-55
2022/01/30 00:46:30;;;;;;;16.98;3.80;;;;;;;5.77;97.84;101793.72;689572;28;4542;-56
2022/01/30 00:46:51;;;;;;;16.43;4.10;;;;;;;5.74;98.49;101796.19;688956;28;1482;-54
2022/01/30 00:47:13;;;;;;;17.05;3.90;;;;;;;5.76;98.69;101796.25;686692;28;1514;-57
2022/01/30 00:47:34;;;;;;;14.85;3.78;;;;;;;5.74;98.91;101801.38;683548;28;1411;-55
2022/01/30 00:47:54;;;;;;;14.70;3.90;;;;;;;5.74;99.06;101806.56;683132;28;1713;-56
2022/01/30 00:48:15;;;;;;;17.30;4.27;;;;;;;5.68;96.68;101803.78;681189;28;1488;-54
2022/01/30 00:48:35;;;;;;;16.92;4.22;;;;;;;5.74;98.25;101809.16;686578;28;3749;-56
2022/01/30 00:48:56;;;;;;;18.20;4.07;;;;;;;5.73;98.45;101809.13;687033;28;1610;-56
2022/01/30 00:49:16;;;;;;;19.38;4.30;;;;;;;5.77;97.01;101800.59;686561;28;1390;-55
2022/01/30 00:49:37;;;;;;;17.80;4.00;;;;;;;5.73;96.71;101809.13;683763;28;4808;-56
2022/01/30 00:49:58;;;;;;;18.20;4.00;;;;;;;5.69;97.21;101817.63;685605;28;1342;-57
2022/01/30 00:50:19;;;;;;;19.67;3.90;;;;;;;5.65;95.82;101807.97;686992;28;1374;-57
2022/01/30 00:50:39;;;;;;;15.63;3.97;;;;;;;5.60;96.57;101813.03;685978;28;1360;-54
2022/01/30 00:51:00;;;;;;;18.50;3.78;;;;;;;5.58;97.88;101819.84;683343;28;1320;-55
2022/01/30 00:51:20;;;;;;;17.63;4.00;;;;;;;5.64;97.98;101812.31;686523;28;3344;-55
2022/01/30 00:51:42;;;;;;;15.85;3.88;;;;;;;5.69;97.13;101810.75;685978;28;1697;-57
2022/01/30 00:52:03;;;;;;;14.75;3.90;;;;;;;5.71;97.58;101816.00;683198;28;1605;-57
2022/01/30 00:52:23;;;;;;;17.53;4.07;;;;;;;5.68;96.64;101815.91;685885;28;4405;-56
2022/01/30 00:52:49;;;;;;;17.98;4.03;;;;;;;5.65;98.31;101816.66;685102;28;1530;-56
2022/01/30 00:53:09;;;;;;;15.68;3.95;;;;;;;5.60;97.48;101813.91;682850;28;1614;-56
2022/01/30 00:53:30;;;;;;;17.10;4.10;;;;;;;5.55;96.71;101823.25;682536;28;1337;-56
2022/01/30 00:53:50;;;;;;;14.23;3.63;;;;;;;5.59;97.02;101826.81;684718;28;1452;-57
2022/01/30 00:54:10;;;;;;;16.23;3.80;;;;;;;5.60;97.75;101823.41;681293;28;3565;-57
2022/01/30 00:54:31;;;;;;;14.63;3.70;;;;;;;5.54;97.07;101820.56;682279;28;3424;-57
2022/01/30 00:54:51;;;;;;;14.93;4.03;;;;;;;5.56;97.63;101821.53;681908;28;1243;-57
2022/01/30 00:55:12;;;;;;;16.83;4.17;;;;;;;5.58;98.85;101825.03;681884;28;1248;-55
2022/01/30 00:55:33;;;;;;;15.85;4.30;;;;;;;5.56;98.32;101817.22;685625;28;4417;-57
2022/01/30 00:55:53;;;;;;;17.65;4.03;;;;;;;5.59;98.24;101829.41;684308;28;974;-56
2022/01/30 00:56:13;;;;;;;18.10;4.07;;;;;;;5.57;97.74;101820.72;689043;28;1426;-57
2022/01/30 00:56:34;;;;;;;17.58;3.90;;;;;;;5.59;98.57;101826.81;686934;28;1717;-55
2022/01/30 00:56:54;;;;;;;16.83;4.37;;;;;;;5.56;98.72;101818.94;688710;28;2962;-57
2022/01/30 00:57:15;;;;;;;18.60;4.78;;;;;;;5.61;97.65;101822.59;687984;28;3407;-57
2022/01/30 00:57:35;;;;;;;16.80;3.90;;;;;;;5.58;97.66;101825.03;690113;28;1620;-57
2022/01/30 00:57:56;;;;;;;15.57;3.85;;;;;;;5.53;98.32;101818.84;689769;28;1236;-56
2022/01/30 00:58:17;;;;;;;19.42;4.32;;;;;;;5.48;97.78;101818.66;689060;28;1322;-56
2022/01/30 00:58:38;;;;;;;15.23;4.05;;;;;;;5.47;98.42;101816.91;689317;28;4813;-57
2022/01/30 00:58:58;;;;;;;16.27;4.05;;;;;;;5.43;98.44;101818.50;689321;28;1101;-56
2022/01/30 00:59:19;;;;;;;16.07;4.20;;;;;;;5.41;99.12;101817.59;689188;28;1327;-55
2022/01/30 00:59:39;;;;;;;18.40;4.40;;;;;;;5.38;99.35;101812.28;686459;28;3915;-55
2022/01/30 01:00:02;;;;;;;15.57;4.13;;;;;;;5.38;99.39;101817.47;689050;28;1402;-55
2022/01/30 01:00:24;;;;;;;13.48;4.05;;;;;;;5.48;98.27;101818.66;684781;28;1121;-54
2022/01/30 01:00:45;;;;;;;14.63;3.80;;;;;;;5.49;99.17;101814.38;682052;28;1627;-53
2022/01/30 01:01:05;;;;;;;16.97;4.10;;;;;;;5.56;98.36;101811.16;683804;28;1511;-56
2022/01/30 01:01:26;;;;;;;14.27;4.10;;;;;;;5.53;98.34;101811.06;683994;28;4332;-57
2022/01/30 01:01:46;;;;;;;17.10;3.83;;;;;;;5.54;98.13;101812.78;685233;28;1966;-55
2022/01/30 01:02:07;;;;;;;16.35;3.97;;;;;;;5.55;97.60;101810.28;686873;28;1271;-56
2022/01/30 01:02:27;;;;;;;18.97;4.57;;;;;;;5.55;97.97;101815.47;688705;28;1690;-56
2022/01/30 01:02:47;;;;;;;21.27;4.22;;;;;;;5.52;98.45;101811.88;688412;28;3388;-57
2022/01/30 01:03:08;;;;;;;18.87;4.07;;;;;;;5.55;98.05;101811.97;689469;28;1318;-55
2022/01/30 01:03:28;;;;;;;18.67;4.18;;;;;;;5.58;96.98;101806.88;685208;28;2477;-56
2022/01/30 01:03:49;;;;;;;16.60;3.90;;;;;;;5.55;97.48;101807.69;686985;28;1230;-56
2022/01/30 01:04:09;;;;;;;14.40;3.90;;;;;;;5.53;98.20;101821.44;683246;28;1228;-57
2022/01/30 01:04:30;;;;;;;16.40;3.80;;;;;;;5.48;98.68;101807.41;683831;28;4422;-57
2022/01/30 01:04:50;;;;;;;17.67;3.83;;;;;;;5.43;98.44;101810.72;684771;28;1677;-57
2022/01/30 01:05:11;;;;;;;15.47;3.90;;;;;;;5.46;98.99;101816.00;686728;28;1111;-57
2022/01/30 01:05:36;;;;;;;16.02;3.92;;;;;;;5.45;98.60;101815.97;686002;28;3141;-56
2022/01/30 01:05:58;;;;;;;17.05;3.97;;;;;;;5.45;98.61;101816.88;682828;28;1236;-56
2022/01/30 01:06:18;;;;;;;16.23;3.95;;;;;;;5.51;98.85;101815.28;686616;28;1570;-56
2022/01/30 01:06:40;;;;;;;16.42;3.63;;;;;;;5.56;97.51;101811.16;683919;28;1856;-52
2022/01/30 01:07:00;;;;;;;13.80;3.70;;;;;;;5.61;98.03;101814.78;684605;28;2544;-58
2022/01/30 01:07:23;;;;;;;17.15;4.20;;;;;;;5.60;98.58;101818.22;686522;28;4574;-58
2022/01/30 01:07:46;;;;;;;19.02;4.13;;;;;;;5.58;98.51;101814.66;687575;28;1361;-53
2022/01/30 01:08:15;;;;;;;15.38;3.95;;;;;;;5.55;98.47;101815.47;686458;28;2130;-58
2022/01/30 01:08:49;;;;;;;16.75;3.50;;;;;;;5.58;98.72;101820.75;686952;28;1578;-56
2022/01/30 01:09:11;;;;;;;14.88;3.72;;;;;;;5.53;98.88;101826.63;684756;28;1981;-55
2022/01/30 01:09:37;;;;;;;15.18;3.85;;;;;;;5.52;99.01;101819.66;683899;28;1530;-57
2022/01/30 01:10:06;;;;;;;17.42;4.18;;;;;;;5.48;99.07;101820.38;685312;28;1219;-56
2022/01/30 01:10:36;;;;;;;15.05;3.85;;;;;;;5.44;99.18;101819.38;686174;28;4573;-55
2022/01/30 01:11:15;;;;;;;17.33;4.20;;;;;;;5.39;99.70;101829.59;686576;28;1144;-56
2022/01/30 01:23:35;;;;;;;16.10;3.92;;;;;;;5.36;98.96;101832.09;688940;28;1555;-56
2022/01/30 01:24:02;;;;;;;17.52;3.92;;;;;;;5.35;98.46;101832.91;689975;28;1265;-57
2022/01/30 01:24:22;;;;;;;17.73;3.83;;;;;;;5.36;98.67;101832.09;688982;28;1246;-55
2022/01/30 01:24:43;;;;;;;15.93;3.77;;;;;;;5.37;99.06;101831.28;688340;28;1109;-54
2022/01/30 01:25:03;;;;;;;16.98;4.28;;;;;;;5.36;98.36;101828.59;688987;28;1051;-57
2022/01/30 01:25:24;;;;;;;17.73;4.40;;;;;;;5.44;97.81;101822.88;688418;28;4306;-54
2022/01/30 01:25:44;;;;;;;15.17;3.87;;;;;;;5.41;98.45;101832.25;689023;28;2138;-55
2022/01/30 01:26:05;;;;;;;15.10;3.70;;;;;;;5.36;97.72;101834.69;688014;28;1263;-56
2022/01/30 01:26:26;;;;;;;16.67;3.80;;;;;;;5.34;98.42;101832.88;688283;28;1010;-54
2022/01/30 01:26:54;;;;;;;15.32;4.10;;;;;;;5.30;98.65;101829.28;691072;28;1333;-56
2022/01/30 01:27:15;;;;;;;16.08;4.10;;;;;;;5.34;98.29;101831.16;689096;28;1136;-57
2022/01/30 01:27:35;;;;;;;19.00;3.97;;;;;;;5.37;99.04;101827.78;691535;28;1151;-57
2022/01/30 01:27:56;;;;;;;19.00;3.77;;;;;;;5.35;99.06;101827.72;691962;28;1179;-56
2022/01/30 01:28:16;;;;;;;18.05;3.75;;;;;;;5.37;99.02;101823.50;691670;28;3752;-56
2022/01/30 01:28:37;;;;;;;16.10;4.03;;;;;;;5.36;98.76;101829.50;688149;28;4784;-57
2022/01/30 01:28:57;;;;;;;19.25;3.97;;;;;;;5.34;99.10;101823.38;685383;28;1468;-58
2022/01/30 01:29:18;;;;;;;20.35;3.72;;;;;;;5.43;98.06;101828.88;689417;28;1537;-56
2022/01/30 01:29:39;;;;;;;20.53;4.03;;;;;;;5.46;97.95;101830.72;689579;28;1835;-55
2022/01/30 01:29:59;;;;;;;19.20;3.73;;;;;;;5.45;97.78;101823.75;689232;28;1296;-57
2022/01/30 01:30:19;;;;;;;16.73;4.00;;;;;;;5.45;98.50;101826.34;689476;28;1242;-55
2022/01/30 01:30:40;;;;;;;18.65;4.13;;;;;;;5.44;99.22;101832.34;689403;28;1171;-57
2022/01/30 01:31:04;;;;;;;15.63;3.83;;;;;;;5.41;98.38;101825.38;686344;28;3289;-53
2022/01/30 01:31:28;;;;;;;15.90;3.60;;;;;;;5.42;98.29;101834.03;685350;28;4563;-57
2022/01/30 01:31:48;;;;;;;16.10;3.67;;;;;;;5.47;97.94;101832.47;684666;28;1671;-57
2022/01/30 01:32:08;;;;;;;17.03;3.90;;;;;;;5.42;97.93;101823.66;684780;28;1519;-56
2022/01/30 01:32:29;;;;;;;16.80;3.73;;;;;;;5.48;97.10;101821.25;685579;28;1382;-55
2022/01/30 01:32:49;;;;;;;12.70;3.60;;;;;;;5.46;97.80;101826.41;686568;28;931;-58
2022/01/30 01:33:10;;;;;;;13.87;3.90;;;;;;;5.42;97.54;101821.94;687238;28;1413;-54
2022/01/30 01:34:06;;;;;;;15.43;3.90;;;;;;;5.50;97.60;101827.41;682452;28;1760;-54
2022/01/30 01:35:08;;;;;;;17.00;3.50;;;;;;;5.57;95.92;101823.31;679969;29;4961;-58
2022/01/30 01:35:29;;;;;;;16.35;3.47;;;;;;;5.51;95.54;101823.97;683252;28;1246;-54
2022/01/30 01:35:49;;;;;;;15.83;3.87;;;;;;;5.50;97.14;101821.31;683692;28;1659;-57
2022/01/30 01:36:10;;;;;;;16.55;3.88;;;;;;;5.42;96.41;101826.25;681169;28;1546;-56
2022/01/30 01:36:30;;;;;;;17.37;4.10;;;;;;;5.39;97.61;101828.72;680942;29;3179;-57
2022/01/30 01:36:51;;;;;;;20.42;4.30;;;;;;;5.33;95.89;101821.63;677745;29;3793;-57
2022/01/30 01:37:12;;;;;;;20.37;4.20;;;;;;;5.32;97.46;101829.31;678325;29;1470;-54
2022/01/30 01:37:35;;;;;;;16.13;4.38;;;;;;;5.39;98.00;101824.41;679495;29;1118;-57
2022/01/30 01:38:00;;;;;;;17.25;3.85;;;;;;;5.37;97.92;101818.31;683132;28;2130;-56
2022/01/30 01:38:26;;;;;;;17.10;4.25;;;;;;;5.36;98.35;101819.13;688486;28;1247;-57
2022/01/30 01:38:46;;;;;;;15.80;3.75;;;;;;;5.41;97.07;101824.47;688591;28;1235;-58
2022/01/30 01:39:07;;;;;;;16.00;3.60;;;;;;;5.48;96.85;101815.19;688180;28;1339;-57
2022/01/30 01:39:28;;;;;;;16.30;3.57;;;;;;;5.53;97.07;101818.84;689381;28;4176;-55
2022/01/30 01:39:48;;;;;;;20.60;4.30;;;;;;;5.51;97.11;101818.78;688690;28;1253;-56
2022/01/30 01:40:09;;;;;;;18.23;4.55;;;;;;;5.48;96.14;101822.97;689080;28;1435;-58
2022/01/30 01:40:30;;;;;;;16.17;3.75;;;;;;;5.44;97.36;101833.25;691580;28;4561;-57
2022/01/30 01:40:52;;;;;;;16.10;3.73;;;;;;;5.47;97.44;101816.91;691988;28;1638;-55
2022/01/30 01:41:15;;;;;;;17.30;4.22;;;;;;;5.54;96.93;101825.78;689099;28;1228;-54
2022/01/30 01:41:36;;;;;;;17.40;4.38;;;;;;;5.58;96.70;101822.44;685718;28;1971;-57
2022/01/30 01:41:57;;;;;;;18.38;3.95;;;;;;;5.52;96.96;101828.31;687008;28;1105;-54
2022/01/30 01:42:17;;;;;;;18.02;3.75;;;;;;;5.47;97.34;101816.91;683184;28;2330;-57
2022/01/30 01:42:38;;;;;;;19.30;3.80;;;;;;;5.46;97.57;101823.78;680738;29;1220;-54
2022/01/30 01:43:01;;;;;;;17.50;3.60;;;;;;;5.46;96.31;101826.41;682749;28;3808;-55
2022/01/30 01:43:24;;;;;;;17.73;3.75;;;;;;;5.40;97.47;101821.00;683365;28;4315;-56
2022/01/30 01:43:45;;;;;;;17.73;3.88;;;;;;;5.39;97.09;101818.38;686775;28;1316;-56
2022/01/30 01:44:14;;;;;;;17.02;4.07;;;;;;;5.33;97.77;101821.63;687620;28;1468;-57
2022/01/30 01:44:41;;;;;;;16.67;3.42;;;;;;;5.30;98.70;101824.09;690965;28;1569;-56
2022/01/30 01:45:03;;;;;;;17.48;4.10;;;;;;;5.32;98.58;101829.31;689026;28;3248;-57
2022/01/30 01:45:25;;;;;;;19.20;3.88;;;;;;;5.33;98.27;101823.31;689166;28;4585;-56
2022/01/30 01:45:48;;;;;;;18.45;3.80;;;;;;;5.39;97.67;101827.00;686409;28;1983;-56
2022/01/30 01:46:15;;;;;;;17.95;3.75;;;;;;;5.39;97.77;101823.56;686482;28;1084;-57
2022/01/30 01:46:35;;;;;;;14.43;3.55;;;;;;;5.31;96.75;101823.25;688653;28;4287;-56
2022/01/30 01:46:56;;;;;;;13.05;3.65;;;;;;;5.30;97.97;101826.69;689762;28;1247;-58
2022/01/30 01:47:19;;;;;;;15.20;4.07;;;;;;;5.25;97.72;101830.84;688666;28;1406;-58
2022/01/30 01:47:40;;;;;;;15.13;3.83;;;;;;;5.21;97.48;101818.59;691136;28;1278;-55
2022/01/30 01:48:07;;;;;;;15.98;3.95;;;;;;;5.18;98.20;101824.56;688448;28;3849;-56
2022/01/30 01:48:33;;;;;;;15.73;3.47;;;;;;;5.17;98.88;101827.97;688926;28;1381;-56
2022/01/30 01:48:55;;;;;;;15.60;3.88;;;;;;;5.13;98.04;101820.91;689062;28;1389;-55
2022/01/30 01:49:26;;;;;;;18.63;3.88;;;;;;;5.10;98.53;101821.66;688662;28;1284;-56
2022/01/30 01:49:49;;;;;;;15.45;4.18;;;;;;;5.09;98.93;101824.22;685810;28;6514;-56
2022/01/30 01:50:17;;;;;;;17.70;3.50;;;;;;;5.05;98.28;101824.91;686303;28;1248;-58
2022/01/30 01:50:45;;;;;;;19.83;3.97;;;;;;;5.10;98.71;101821.66;688650;28;989;-56
2022/01/30 01:51:14;;;;;;;18.98;4.05;;;;;;;5.09;99.22;101819.88;687618;28;3788;-57
2022/01/30 01:51:35;;;;;;;18.42;3.97;;;;;;;5.25;98.57;101820.47;690427;28;1254;-55
2022/01/30 01:52:18;;;;;;;15.25;3.90;;;;;;;5.26;98.69;101823.13;689545;28;1202;-54
2022/01/30 01:52:38;;;;;;;17.95;4.13;;;;;;;5.26;98.00;101823.13;689575;28;5049;-57
2022/01/30 01:52:59;;;;;;;15.93;3.80;;;;;;;5.22;97.40;101820.34;690787;28;1401;-53
2022/01/30 01:53:30;;;;;;;16.73;3.70;;;;;;;5.18;98.41;101818.47;689366;28;1227;-56
2022/01/30 01:53:53;;;;;;;17.55;3.40;;;;;;;5.13;98.16;101820.03;689508;28;1565;-57
2022/01/30 01:54:13;;;;;;;17.23;4.28;;;;;;;5.12;99.09;101819.13;688944;28;3836;-57
2022/01/30 01:54:34;;;;;;;17.83;4.00;;;;;;;5.16;98.54;101809.75;689293;28;1107;-55
2022/01/30 01:54:57;;;;;;;17.83;3.65;;;;;;;5.21;97.35;101819.47;689304;28;1517;-54
2022/01/30 01:55:18;;;;;;;17.38;3.75;;;;;;;5.26;97.90;101823.13;691456;28;4652;-58
2022/01/30 01:55:40;;;;;;;17.25;4.20;;;;;;;5.25;97.23;101815.28;689054;28;1295;-57
2022/01/30 01:56:07;;;;;;;18.35;3.70;;;;;;;5.34;96.54;101805.22;685629;28;1512;-57
2022/01/30 01:56:31;;;;;;;18.65;4.53;;;;;;;5.29;96.88;101817.16;686253;28;3364;-57
2022/01/30 01:57:08;;;;;;;16.20;4.13;;;;;;;5.25;98.22;101816.16;688926;28;1368;-57
2022/01/30 01:57:32;;;;;;;17.52;3.83;;;;;;;5.19;97.60;101815.94;688174;28;1491;-55
2022/01/30 01:58:18;;;;;;;18.95;3.90;;;;;;;5.25;97.77;101808.38;686989;28;4638;-55
2022/01/30 01:58:56;;;;;;;18.45;3.83;;;;;;;5.21;98.25;101809.09;687601;28;1506;-56
2022/01/30 01:59:43;;;;;;;17.55;3.83;;;;;;;5.24;97.37;101809.19;687363;28;3805;-55
2022/01/30 02:00:10;;;;;;;19.15;4.38;;;;;;;5.25;97.99;101810.97;688169;28;1542;-56
2022/01/30 02:00:37;;;;;;;16.90;3.90;;;;;;;5.27;97.00;101803.25;689462;28;864;-56
2022/01/30 02:00:59;;;;;;;19.92;3.97;;;;;;;5.24;97.62;101809.19;688587;28;1517;-57
2022/01/30 02:01:21;;;;;;;19.02;4.13;;;;;;;5.23;98.11;101811.75;687241;28;4472;-53
2022/01/30 02:01:41;;;;;;;20.23;4.03;;;;;;;5.20;98.00;101806.44;684707;28;1371;-58
2022/01/30 02:02:03;;;;;;;20.23;3.97;;;;;;;5.18;97.74;101819.38;687102;28;1639;-56
2022/01/30 02:02:24;;;;;;;19.77;4.05;;;;;;;5.12;98.42;101811.34;689470;28;3651;-57
2022/01/30 02:02:45;;;;;;;15.43;3.90;;;;;;;5.11;98.49;101812.19;688922;28;1377;-56
2022/01/30 02:03:05;;;;;;;14.23;3.67;;;;;;;5.08;98.57;101810.38;686472;28;1776;-56
2022/01/30 02:03:27;;;;;;;16.48;3.65;;;;;;;5.06;98.25;101812.00;684563;28;1795;-57